Orland, Maine
Current Conditions -  °F | °C
As of 5:53 PM on Monday 24 Nov 2014 (Local Time) from KBGR Reporting Station
Haze Haze  
Wind Chill: 57°   Ceiling: 300
Heat Index: 57°   Visibility: 2.5mi
Dew Point: 56°   Wind: 15mph
Humidity: 96%   Direction: 180°S
Pressure: 29.54"   Gusts: 25mph
Location:  44.57°N, 68.74°W
Report Text: KBGR 242253Z 18013G22KT 2 1/2SM BR OVC003 14/13 A2954 RMK AO2 PK WND 16027/2221 DZE04RAB04E36 SLP004 P0002 T01390133
Loading
Personal Weather Stations






























Interactive Weather Map New forecast layout! Learn more

10-Day Weather Forecast

Advertisements
Track Severe Weather on mobile